Time;durP1;ratioP1;P1;durP2;ratioP2;P2;SDS_P1;SDS_P2;PMS_P1;PMS_P2;Temp;Humidity;BMP_temperature;BMP_pressure;BME280_temperature;BME280_humidity;BME280_pressure;Samples;Min_cycle;Max_cycle;Signal;HPM_P1;HPM_P2
2022/01/07 00:01:35;;;;;;;1.50;1.40;;;3.70;99.90;;;;;;4995135;28;20022;-74
2022/01/07 00:04:04;;;;;;;2.70;1.40;;;3.70;99.90;;;;;;4998172;28;20087;-74
2022/01/07 00:06:30;;;;;;;1.40;1.30;;;3.60;99.90;;;;;;4984613;28;20093;-74
2022/01/07 00:08:55;;;;;;;2.57;1.20;;;3.60;99.90;;;;;;4994756;28;20022;-74
2022/01/07 00:11:21;;;;;;;1.33;0.97;;;3.60;99.90;;;;;;4995417;28;20027;-74
2022/01/07 00:13:47;;;;;;;1.10;1.00;;;3.60;99.90;;;;;;4995056;28;20077;-74
2022/01/07 00:16:13;;;;;;;1.23;1.13;;;3.70;99.90;;;;;;4995279;28;20109;-74
2022/01/07 00:18:43;;;;;;;1.00;1.00;;;3.70;99.90;;;;;;4977742;28;20076;-74
2022/01/07 00:21:10;;;;;;;1.03;0.97;;;3.70;99.90;;;;;;4977070;28;20488;-74
2022/01/07 00:23:36;;;;;;;2.03;1.20;;;3.60;99.90;;;;;;5013505;28;20026;-74
2022/01/07 00:26:02;;;;;;;2.73;1.00;;;3.70;99.90;;;;;;5014522;28;20025;-74
2022/01/07 00:28:28;;;;;;;1.43;0.90;;;3.60;99.90;;;;;;5011867;28;20064;-74
2022/01/07 00:30:55;;;;;;;1.63;1.53;;;3.60;99.90;;;;;;5011346;28;20061;-74
2022/01/07 00:33:20;;;;;;;1.17;1.07;;;3.60;99.90;;;;;;4993615;28;20167;-74
2022/01/07 00:35:46;;;;;;;1.43;1.33;;;3.60;99.90;;;;;;5011669;28;20093;-74
2022/01/07 00:38:12;;;;;;;1.20;1.10;;;3.60;99.90;;;;;;5011179;28;20033;-74
2022/01/07 00:40:38;;;;;;;1.30;1.20;;;3.60;99.90;;;;;;5011747;28;20030;-73
2022/01/07 00:43:05;;;;;;;1.70;1.60;;;3.60;99.90;;;;;;5011077;28;20018;-74
2022/01/07 00:45:31;;;;;;;0.93;0.93;;;3.70;99.90;;;;;;5011036;28;20026;-74
2022/01/07 00:47:57;;;;;;;1.40;1.20;;;3.60;99.90;;;;;;5011881;28;20033;-74
2022/01/07 00:50:26;;;;;;;1.37;1.27;;;3.60;99.90;;;;;;5010920;28;20022;-74
2022/01/07 00:52:53;;;;;;;0.87;0.83;;;3.60;99.90;;;;;;5005308;28;20121;-75
2022/01/07 00:55:19;;;;;;;1.23;1.13;;;3.60;99.90;;;;;;4993824;28;20030;-73
2022/01/07 00:57:45;;;;;;;1.30;1.20;;;3.60;99.90;;;;;;4992968;28;20038;-74
2022/01/07 01:00:14;;;;;;;1.20;1.10;;;3.60;99.90;;;;;;4992431;28;20025;-73
2022/01/07 01:02:40;;;;;;;1.40;1.30;;;3.50;99.90;;;;;;4992369;28;20102;-73
2022/01/07 01:05:08;;;;;;;1.50;1.40;;;3.70;99.90;;;;;;4992487;28;20046;-73
2022/01/07 01:07:34;;;;;;;1.87;1.60;;;3.70;99.90;;;;;;4998349;28;20429;-73
2022/01/07 01:10:01;;;;;;;1.57;1.47;;;3.70;99.90;;;;;;5004158;28;20076;-73
2022/01/07 01:12:27;;;;;;;1.47;1.37;;;3.70;99.90;;;;;;4996770;28;20026;-73
2022/01/07 01:14:53;;;;;;;1.30;1.20;;;3.70;99.90;;;;;;5033196;28;20061;-73
2022/01/07 01:17:19;;;;;;;1.70;1.60;;;3.70;99.90;;;;;;5004559;28;20057;-74
2022/01/07 01:19:44;;;;;;;1.40;1.30;;;3.80;99.90;;;;;;4990312;28;20469;-74
2022/01/07 01:22:10;;;;;;;1.87;1.40;;;3.70;99.90;;;;;;5010538;28;20022;-73
2022/01/07 01:24:36;;;;;;;1.37;1.27;;;3.70;99.90;;;;;;4976201;28;20029;-73
2022/01/07 01:27:02;;;;;;;1.50;1.40;;;3.70;99.90;;;;;;5004502;28;20097;-73
2022/01/07 01:29:28;;;;;;;1.90;1.40;;;3.80;99.90;;;;;;4978133;28;20109;-74
2022/01/07 01:31:54;;;;;;;1.90;1.80;;;3.70;99.90;;;;;;4990073;28;20430;-73
2022/01/07 01:34:20;;;;;;;1.63;1.53;;;3.70;99.90;;;;;;4995481;28;20052;-73
2022/01/07 01:36:45;;;;;;;1.70;1.60;;;3.70;99.90;;;;;;5002562;28;20460;-74
2022/01/07 01:39:12;;;;;;;1.40;1.30;;;3.70;99.90;;;;;;5010739;28;20083;-75
2022/01/07 01:41:39;;;;;;;1.33;1.30;;;3.60;99.90;;;;;;5010288;28;20021;-75
2022/01/07 01:44:05;;;;;;;1.70;1.60;;;3.70;99.90;;;;;;5010469;28;20392;-75
2022/01/07 01:46:31;;;;;;;1.70;1.60;;;3.60;99.90;;;;;;4997271;28;20019;-75
2022/01/07 01:48:57;;;;;;;1.47;1.37;;;3.70;99.90;;;;;;4996070;28;20015;-74
2022/01/07 01:51:22;;;;;;;1.70;1.60;;;3.60;99.90;;;;;;5004806;28;20615;-74
2022/01/07 01:53:48;;;;;;;1.40;1.30;;;3.60;99.90;;;;;;5010230;28;20026;-74
2022/01/07 01:56:14;;;;;;;1.10;1.10;;;3.60;99.90;;;;;;5007195;28;20057;-75
2022/01/07 01:58:40;;;;;;;1.30;1.20;;;3.60;99.90;;;;;;5012435;28;20084;-75
2022/01/07 02:01:06;;;;;;;1.30;1.20;;;3.60;99.90;;;;;;5007903;28;20026;-75
2022/01/07 02:03:32;;;;;;;1.47;1.27;;;3.60;99.90;;;;;;4994662;28;20053;-74
2022/01/07 02:05:58;;;;;;;1.13;1.10;;;3.60;99.90;;;;;;5012274;28;20023;-75
2022/01/07 02:08:24;;;;;;;2.13;1.50;;;3.70;99.90;;;;;;5012369;28;20026;-75
2022/01/07 02:10:50;;;;;;;1.30;1.20;;;3.60;99.90;;;;;;5012278;28;20108;-75
2022/01/07 02:13:17;;;;;;;1.40;1.30;;;3.60;99.90;;;;;;4994606;28;20157;-74
2022/01/07 02:15:43;;;;;;;1.70;1.57;;;3.60;99.90;;;;;;5012378;28;20026;-74
2022/01/07 02:18:09;;;;;;;2.10;1.70;;;3.60;99.90;;;;;;5012373;28;20464;-75
2022/01/07 02:20:35;;;;;;;1.30;1.30;;;3.60;99.90;;;;;;5011417;28;20037;-74
2022/01/07 02:23:01;;;;;;;1.47;1.37;;;3.70;99.90;;;;;;5011212;28;20022;-74
2022/01/07 02:25:28;;;;;;;1.43;1.33;;;3.70;99.90;;;;;;5011568;28;20022;-74
2022/01/07 02:27:54;;;;;;;2.37;1.40;;;3.70;99.90;;;;;;4995060;28;20109;-74
2022/01/07 02:30:27;;;;;;;1.50;1.40;;;3.70;99.90;;;;;;5012754;28;20044;-75
2022/01/07 02:32:54;;;;;;;1.60;1.50;;;3.70;99.90;;;;;;4997425;28;20022;-75
2022/01/07 02:35:24;;;;;;;1.57;1.47;;;3.60;99.90;;;;;;5016604;28;20101;-74
2022/01/07 02:37:50;;;;;;;2.37;1.53;;;3.60;99.90;;;;;;5016527;28;20010;-74
2022/01/07 02:40:16;;;;;;;2.00;1.20;;;3.60;99.90;;;;;;4998757;28;20084;-74
2022/01/07 02:42:42;;;;;;;1.73;1.63;;;3.60;99.90;;;;;;5016540;28;20025;-75
2022/01/07 02:45:09;;;;;;;1.43;1.33;;;3.60;99.90;;;;;;5016476;28;20393;-74
2022/01/07 02:47:55;;;;;;;1.10;1.10;;;3.60;99.90;;;;;;5016462;28;20021;-75
2022/01/07 02:50:27;;;;;;;1.53;1.33;;;3.60;99.90;;;;;;5016416;28;20018;-75
2022/01/07 02:52:54;;;;;;;1.02;1.02;;;3.60;99.90;;;;;;4998543;28;20022;-75
2022/01/07 02:55:21;;;;;;;1.47;1.37;;;3.60;99.90;;;;;;5016226;28;20444;-75
2022/01/07 02:57:47;;;;;;;1.60;1.50;;;3.60;99.90;;;;;;4998644;28;20033;-75
2022/01/07 03:00:16;;;;;;;1.87;1.70;;;3.60;99.90;;;;;;5016141;28;20112;-74
2022/01/07 03:02:43;;;;;;;1.40;1.30;;;3.50;99.90;;;;;;5016101;28;20029;-74
2022/01/07 03:05:09;;;;;;;1.97;1.50;;;3.50;99.90;;;;;;4998224;28;20054;-74
2022/01/07 03:07:35;;;;;;;2.37;1.93;;;3.50;99.90;;;;;;5027910;28;20823;-75
2022/01/07 03:10:02;;;;;;;1.30;1.20;;;3.50;99.90;;;;;;5018076;28;20479;-75
2022/01/07 03:12:28;;;;;;;1.73;1.63;;;3.50;99.90;;;;;;5017585;28;20030;-74
2022/01/07 03:14:54;;;;;;;1.53;1.33;;;3.50;99.90;;;;;;5035604;28;20052;-75
2022/01/07 03:17:19;;;;;;;1.73;1.20;;;3.50;99.90;;;;;;5035562;28;20415;-74
2022/01/07 03:19:45;;;;;;;1.63;1.53;;;3.40;99.90;;;;;;5017868;28;20030;-74
2022/01/07 03:22:11;;;;;;;1.40;1.30;;;3.40;99.90;;;;;;5028202;28;20502;-74
2022/01/07 03:24:38;;;;;;;1.33;1.23;;;3.40;99.90;;;;;;5015859;28;20026;-74
2022/01/07 03:27:05;;;;;;;2.60;1.50;;;3.40;99.90;;;;;;5015489;28;20029;-74
2022/01/07 03:29:31;;;;;;;1.00;1.00;;;3.50;99.90;;;;;;5015583;28;20022;-75
2022/01/07 03:31:57;;;;;;;1.30;1.20;;;3.60;99.90;;;;;;5015679;28;20076;-74
2022/01/07 03:34:22;;;;;;;1.67;1.50;;;3.60;99.90;;;;;;5015590;28;20033;-75
2022/01/07 03:36:48;;;;;;;4.60;1.60;;;3.60;99.90;;;;;;4997987;28;20040;-75
2022/01/07 03:39:15;;;;;;;2.80;1.77;;;3.60;99.90;;;;;;5015371;28;20057;-74
2022/01/07 03:41:41;;;;;;;1.63;1.53;;;3.60;99.90;;;;;;5015470;28;20026;-74
2022/01/07 03:44:06;;;;;;;1.37;1.27;;;3.60;99.90;;;;;;4996575;28;20384;-74
2022/01/07 03:46:32;;;;;;;1.30;1.27;;;3.60;99.90;;;;;;5015219;28;20026;-75
2022/01/07 03:48:58;;;;;;;1.67;1.40;;;3.70;99.90;;;;;;5015235;28;20033;-75
2022/01/07 03:51:23;;;;;;;1.40;1.30;;;3.70;99.90;;;;;;5015422;28;20030;-74
2022/01/07 03:53:49;;;;;;;3.00;1.50;;;3.70;99.90;;;;;;5014970;28;20054;-74
2022/01/07 03:56:18;;;;;;;2.07;1.63;;;3.70;99.90;;;;;;5014992;28;20493;-75
2022/01/07 03:58:45;;;;;;;1.90;1.67;;;3.70;99.90;;;;;;5014658;28;20036;-74
2022/01/07 04:01:10;;;;;;;1.50;1.30;;;3.70;99.90;;;;;;5013788;28;20118;-74
2022/01/07 04:03:36;;;;;;;1.97;1.70;;;3.70;99.90;;;;;;4997046;28;20116;-74
2022/01/07 04:06:02;;;;;;;1.23;1.13;;;3.70;99.90;;;;;;4997070;28;20022;-74
2022/01/07 04:08:28;;;;;;;1.53;1.43;;;3.70;99.90;;;;;;5015053;28;20507;-74
2022/01/07 04:10:54;;;;;;;1.70;1.50;;;3.70;99.90;;;;;;5014829;28;20034;-74
2022/01/07 04:13:20;;;;;;;1.43;1.33;;;3.70;99.90;;;;;;4997048;28;20076;-74
2022/01/07 04:15:45;;;;;;;1.47;1.37;;;3.70;99.90;;;;;;4996829;28;20037;-74
2022/01/07 04:18:11;;;;;;;1.23;1.13;;;3.70;99.90;;;;;;4997042;28;20484;-75
2022/01/07 04:20:37;;;;;;;1.40;1.30;;;3.70;99.90;;;;;;4996847;28;20089;-74
2022/01/07 04:23:05;;;;;;;1.30;1.20;;;3.60;99.90;;;;;;4996976;28;20026;-74
2022/01/07 04:25:32;;;;;;;1.50;1.40;;;3.60;99.90;;;;;;5014638;28;20108;-74
2022/01/07 04:28:00;;;;;;;1.10;1.00;;;3.60;99.90;;;;;;5014431;28;20022;-74
2022/01/07 04:30:33;;;;;;;1.03;1.03;;;3.60;99.90;;;;;;5014497;28;20566;-75
2022/01/07 04:33:01;;;;;;;1.53;1.10;;;3.60;99.90;;;;;;5014672;28;20030;-74
2022/01/07 04:35:27;;;;;;;1.50;1.17;;;3.50;99.90;;;;;;5014245;28;20045;-74
2022/01/07 04:37:53;;;;;;;1.63;1.50;;;3.50;99.90;;;;;;5014395;28;20021;-74
2022/01/07 04:40:19;;;;;;;1.50;1.40;;;3.50;99.90;;;;;;5014248;28;20018;-74
2022/01/07 04:42:45;;;;;;;1.67;1.57;;;3.50;99.90;;;;;;5014168;28;20115;-74
2022/01/07 04:45:12;;;;;;;1.30;1.20;;;3.60;99.90;;;;;;5014014;28;20104;-74
2022/01/07 04:47:39;;;;;;;1.57;1.43;;;3.50;99.90;;;;;;5014108;28;20160;-74
2022/01/07 04:50:08;;;;;;;1.50;1.40;;;3.50;99.90;;;;;;5013779;28;20468;-74
2022/01/07 04:52:33;;;;;;;1.50;1.30;;;3.50;99.90;;;;;;5013698;28;20037;-74
2022/01/07 04:54:59;;;;;;;2.30;1.30;;;3.50;99.90;;;;;;5013831;28;20022;-74
2022/01/07 04:57:25;;;;;;;2.53;1.50;;;3.40;99.90;;;;;;5023344;28;20026;-74
2022/01/07 04:59:51;;;;;;;1.23;1.10;;;3.40;99.90;;;;;;5033567;28;20112;-74
2022/01/07 05:02:19;;;;;;;4.37;1.33;;;3.40;99.90;;;;;;5033698;28;20104;-74
2022/01/07 05:04:45;;;;;;;1.50;1.40;;;3.40;99.90;;;;;;5033457;28;20104;-74
2022/01/07 05:07:11;;;;;;;2.33;1.37;;;3.30;99.90;;;;;;5033578;28;20049;-74
2022/01/07 05:09:37;;;;;;;1.40;1.30;;;3.30;99.90;;;;;;5033443;28;20045;-75
2022/01/07 05:12:03;;;;;;;3.00;1.40;;;3.30;99.90;;;;;;5032296;28;20177;-74
2022/01/07 05:14:29;;;;;;;4.43;1.40;;;3.30;99.90;;;;;;5015025;28;20060;-74
2022/01/07 05:16:56;;;;;;;1.10;1.10;;;3.30;99.90;;;;;;5015373;28;20029;-74
2022/01/07 05:19:22;;;;;;;1.50;1.40;;;3.30;99.90;;;;;;5033354;28;20025;-75
2022/01/07 05:21:48;;;;;;;3.30;1.40;;;3.20;99.90;;;;;;5029148;28;20511;-75
2022/01/07 05:24:13;;;;;;;1.47;1.37;;;3.20;99.90;;;;;;4995662;28;20117;-74
2022/01/07 05:26:39;;;;;;;1.40;1.30;;;3.20;99.90;;;;;;5013481;28;20022;-74
2022/01/07 05:29:05;;;;;;;1.13;1.13;;;3.10;99.90;;;;;;5013467;28;20542;-75
2022/01/07 05:31:31;;;;;;;2.60;1.43;;;3.10;99.90;;;;;;4995925;28;20116;-74
2022/01/07 05:33:57;;;;;;;1.30;1.20;;;3.10;99.90;;;;;;5013375;28;20057;-74
2022/01/07 05:36:23;;;;;;;1.50;1.40;;;3.10;99.90;;;;;;5013366;28;20026;-74
2022/01/07 05:38:49;;;;;;;1.63;1.53;;;3.10;99.90;;;;;;4995609;28;20184;-74
2022/01/07 05:41:15;;;;;;;1.37;1.27;;;3.10;99.90;;;;;;5013129;28;20116;-74
2022/01/07 05:43:41;;;;;;;1.10;1.10;;;3.00;99.90;;;;;;4995308;28;20029;-74
2022/01/07 05:46:10;;;;;;;1.20;1.10;;;3.00;99.90;;;;;;5013197;28;20433;-74
2022/01/07 05:48:36;;;;;;;2.57;1.57;;;3.00;99.90;;;;;;5013403;28;20022;-74
2022/01/07 05:51:03;;;;;;;1.40;1.30;;;2.90;99.90;;;;;;5013235;28;20032;-75
2022/01/07 05:53:28;;;;;;;1.60;1.50;;;2.90;99.90;;;;;;5012934;28;20079;-74
2022/01/07 05:55:54;;;;;;;1.50;1.40;;;2.90;99.90;;;;;;5013033;28;20475;-75
2022/01/07 05:58:20;;;;;;;1.87;1.60;;;2.90;99.90;;;;;;5012993;28;20049;-74
2022/01/07 06:00:46;;;;;;;1.60;1.50;;;2.90;99.90;;;;;;5012952;28;20487;-74
2022/01/07 06:03:11;;;;;;;1.43;1.33;;;2.90;99.90;;;;;;4995495;28;20025;-74
2022/01/07 06:05:37;;;;;;;1.27;1.17;;;2.80;99.90;;;;;;5013211;28;20101;-74
2022/01/07 06:08:03;;;;;;;1.93;1.50;;;2.80;99.90;;;;;;5017771;28;20028;-75
2022/01/07 06:10:29;;;;;;;7.40;1.73;;;2.80;99.90;;;;;;5019618;28;20105;-74
2022/01/07 06:12:55;;;;;;;2.10;1.90;;;2.80;99.90;;;;;;4998539;28;20137;-74
2022/01/07 06:15:21;;;;;;;3.47;1.80;;;2.80;99.90;;;;;;4999855;28;20054;-74
2022/01/07 06:17:46;;;;;;;1.90;1.80;;;2.80;99.90;;;;;;4998627;28;20116;-74
2022/01/07 06:20:12;;;;;;;2.27;2.17;;;2.80;99.90;;;;;;4999895;28;20022;-74
2022/01/07 06:22:38;;;;;;;2.67;1.90;;;2.80;99.90;;;;;;4998331;28;20057;-75
2022/01/07 06:25:05;;;;;;;1.73;1.63;;;2.80;99.90;;;;;;4999653;28;20030;-75
2022/01/07 06:27:31;;;;;;;1.73;1.63;;;2.80;99.90;;;;;;4999940;28;20117;-74
2022/01/07 06:29:57;;;;;;;1.37;1.27;;;2.80;99.90;;;;;;4999742;28;20500;-74
2022/01/07 06:32:24;;;;;;;1.97;1.87;;;2.70;99.90;;;;;;4999822;28;20036;-75
2022/01/07 06:34:51;;;;;;;1.73;1.63;;;2.70;99.90;;;;;;4998159;28;20452;-74
2022/01/07 06:37:17;;;;;;;1.77;1.67;;;2.70;99.90;;;;;;4999672;28;20030;-75
2022/01/07 06:39:42;;;;;;;1.70;1.60;;;2.70;99.90;;;;;;4999942;28;20141;-74
2022/01/07 06:42:08;;;;;;;3.73;1.90;;;2.70;99.90;;;;;;4999488;28;20030;-74
2022/01/07 06:44:35;;;;;;;2.40;2.20;;;2.70;99.90;;;;;;4999434;28;20022;-74
2022/01/07 06:47:01;;;;;;;4.07;2.73;;;2.70;99.90;;;;;;4999614;28;20427;-74
2022/01/07 06:49:27;;;;;;;3.70;3.40;;;2.70;99.90;;;;;;4999889;28;20014;-74
2022/01/07 06:51:54;;;;;;;3.63;3.33;;;2.70;99.90;;;;;;5029456;28;20030;-75
2022/01/07 06:54:19;;;;;;;3.17;2.87;;;2.80;99.90;;;;;;4999495;28;20033;-74
2022/01/07 06:56:45;;;;;;;3.87;3.57;;;2.80;99.90;;;;;;4999712;28;20034;-74
2022/01/07 06:59:12;;;;;;;3.70;3.40;;;2.80;99.90;;;;;;4999638;28;20034;-74
2022/01/07 07:01:39;;;;;;;4.07;3.60;;;2.80;99.90;;;;;;4998051;28;20065;-74
2022/01/07 07:04:05;;;;;;;3.33;3.13;;;2.80;99.90;;;;;;4999242;28;20033;-74
2022/01/07 07:06:31;;;;;;;4.33;3.47;;;2.80;99.90;;;;;;4998228;28;20027;-75
2022/01/07 07:08:56;;;;;;;5.23;4.23;;;2.80;99.90;;;;;;4999441;28;20096;-74
2022/01/07 07:11:22;;;;;;;4.63;4.10;;;2.90;99.90;;;;;;4999363;28;20100;-74
2022/01/07 07:13:48;;;;;;;4.70;4.30;;;2.90;99.90;;;;;;5012065;28;20419;-74
2022/01/07 07:16:14;;;;;;;4.77;4.13;;;2.90;99.90;;;;;;5000906;28;20615;-74
2022/01/07 07:18:40;;;;;;;7.03;4.67;;;2.80;99.90;;;;;;4998702;28;20068;-75
2022/01/07 07:21:06;;;;;;;3.43;3.13;;;2.80;99.90;;;;;;4998065;28;20034;-74
2022/01/07 07:23:32;;;;;;;3.10;2.90;;;2.80;99.90;;;;;;5015756;28;20072;-75
2022/01/07 07:25:57;;;;;;;3.33;2.70;;;2.80;99.90;;;;;;5015694;28;20030;-74
2022/01/07 07:28:23;;;;;;;2.80;2.60;;;2.80;99.90;;;;;;5015678;28;20029;-74
2022/01/07 07:30:51;;;;;;;2.73;2.50;;;2.80;99.90;;;;;;5015771;28;20030;-75
2022/01/07 07:38:39;;;;;;;3.17;2.60;;;2.90;99.90;;;;;;5015769;28;20519;-74
2022/01/07 07:41:06;;;;;;;2.60;2.40;;;2.90;99.90;;;;;;4997783;28;20022;-74
2022/01/07 07:43:33;;;;;;;3.10;2.70;;;3.00;99.90;;;;;;5015417;28;20028;-74
2022/01/07 07:45:59;;;;;;;4.80;2.40;;;3.00;99.90;;;;;;5015177;28;20076;-75
2022/01/07 07:48:25;;;;;;;2.20;1.83;;;3.00;99.90;;;;;;4997716;28;20018;-74
2022/01/07 07:50:51;;;;;;;1.67;1.57;;;3.00;99.90;;;;;;5015427;28;20033;-74
2022/01/07 07:53:16;;;;;;;1.60;1.50;;;3.00;99.90;;;;;;5015167;28;20037;-74
2022/01/07 07:55:44;;;;;;;1.67;1.57;;;3.10;99.90;;;;;;5014943;28;20552;-75
2022/01/07 07:58:09;;;;;;;1.90;1.70;;;3.10;99.90;;;;;;4997450;28;20026;-75
2022/01/07 08:00:35;;;;;;;3.50;2.20;;;3.10;99.90;;;;;;4996295;28;20450;-74
2022/01/07 08:03:01;;;;;;;2.13;2.03;;;3.10;99.90;;;;;;5014157;28;20490;-75
2022/01/07 08:05:27;;;;;;;5.40;2.67;;;3.10;99.90;;;;;;5014486;28;20026;-74
2022/01/07 08:07:52;;;;;;;4.77;3.37;;;3.10;99.90;;;;;;5014828;28;20213;-74
2022/01/07 08:10:23;;;;;;;2.63;2.43;;;3.10;99.90;;;;;;5014582;28;20030;-74
2022/01/07 08:18:02;;;;;;;8.10;5.23;;;3.20;99.90;;;;;;5014749;28;20033;-74
2022/01/07 08:20:28;;;;;;;153.20;70.63;;;3.30;99.90;;;;;;5014568;28;20024;-74
2022/01/07 08:22:55;;;;;;;140.93;66.10;;;3.30;99.90;;;;;;5014665;28;20021;-75
2022/01/07 08:25:21;;;;;;;44.53;23.80;;;3.40;99.90;;;;;;5014379;28;20022;-74
2022/01/07 08:27:47;;;;;;;14.60;10.00;;;3.40;99.90;;;;;;5014354;28;20030;-74
2022/01/07 08:30:20;;;;;;;15.77;10.37;;;3.40;99.90;;;;;;5014130;28;20108;-74
2022/01/07 08:35:30;;;;;;;12.03;7.97;;;3.50;99.90;;;;;;5014278;28;20118;-74
2022/01/07 08:37:56;;;;;;;10.17;5.43;;;3.60;99.90;;;;;;4996678;28;20073;-74
2022/01/07 08:40:22;;;;;;;14.23;7.10;;;3.70;99.90;;;;;;4984698;28;20026;-74
2022/01/07 08:42:47;;;;;;;13.63;6.70;;;3.80;99.90;;;;;;4998916;28;20025;-74
2022/01/07 08:45:13;;;;;;;7.27;3.60;;;3.80;99.90;;;;;;4999940;28;20029;-73
2022/01/07 08:47:39;;;;;;;14.87;5.57;;;3.90;99.90;;;;;;5009924;28;20019;-74
2022/01/07 08:50:05;;;;;;;48.20;20.17;;;4.00;99.90;;;;;;5029872;28;20022;-74
2022/01/07 08:52:31;;;;;;;316.33;123.20;;;4.00;99.90;;;;;;5001761;28;20380;-74
2022/01/07 08:54:57;;;;;;;267.63;105.00;;;4.10;99.90;;;;;;5010824;28;20033;-74
2022/01/07 08:57:26;;;;;;;86.20;36.73;;;4.10;99.90;;;;;;5010334;28;20056;-74
2022/01/07 08:59:52;;;;;;;25.00;13.30;;;4.20;99.90;;;;;;4992400;28;20045;-74
2022/01/07 09:02:18;;;;;;;20.27;10.23;;;4.20;99.90;;;;;;4992646;28;20034;-74
2022/01/07 09:04:43;;;;;;;392.17;159.00;;;4.30;99.90;;;;;;5010140;28;20388;-74
2022/01/07 09:07:09;;;;;;;412.17;171.03;;;4.30;99.90;;;;;;4992588;28;20468;-74
2022/01/07 09:09:35;;;;;;;173.17;75.43;;;4.40;99.90;;;;;;5010820;28;20026;-74
2022/01/07 09:12:01;;;;;;;59.57;28.57;;;4.40;99.90;;;;;;5010021;28;20499;-74
2022/01/07 09:14:26;;;;;;;23.90;14.17;;;4.50;99.90;;;;;;5010714;28;20046;-73
2022/01/07 09:16:52;;;;;;;14.10;8.93;;;4.50;99.90;;;;;;5010340;28;20026;-74
2022/01/07 09:19:19;;;;;;;9.53;5.80;;;4.60;99.90;;;;;;5010203;28;20057;-74
2022/01/07 09:21:45;;;;;;;10.10;5.33;;;4.60;99.90;;;;;;4992946;28;20445;-74
2022/01/07 09:24:11;;;;;;;6.63;4.97;;;4.70;99.90;;;;;;5009999;28;20100;-74
2022/01/07 09:26:37;;;;;;;8.80;4.10;;;4.70;99.90;;;;;;5010475;28;20014;-74
2022/01/07 09:29:02;;;;;;;6.03;4.18;;;4.80;99.90;;;;;;5010693;28;20049;-74
2022/01/07 09:31:29;;;;;;;8.45;5.65;;;4.80;99.90;;;;;;5010103;28;20360;-74
2022/01/07 09:33:54;;;;;;;15.27;8.45;;;4.90;99.90;;;;;;5010446;28;20030;-74
2022/01/07 09:36:20;;;;;;;24.43;11.27;;;4.90;99.90;;;;;;5009880;28;20041;-74
2022/01/07 09:38:46;;;;;;;15.30;7.75;;;5.00;99.90;;;;;;5010118;28;20026;-74
2022/01/07 09:41:12;;;;;;;16.95;7.93;;;5.00;99.90;;;;;;5009498;28;20030;-74
2022/01/07 09:43:41;;;;;;;17.38;8.68;;;5.00;99.90;;;;;;5009391;28;20026;-74
2022/01/07 09:46:07;;;;;;;27.42;9.50;;;5.10;99.90;;;;;;5009732;28;20064;-74
2022/01/07 09:48:32;;;;;;;19.75;9.45;;;5.10;99.90;;;;;;5010717;28;20022;-74
2022/01/07 09:50:59;;;;;;;17.27;9.93;;;5.10;99.90;;;;;;4992584;28;20392;-74
2022/01/07 09:53:26;;;;;;;18.25;9.98;;;5.10;99.90;;;;;;5009498;28;20093;-74
2022/01/07 09:55:52;;;;;;;14.05;8.85;;;5.20;99.90;;;;;;5009071;28;20714;-74
2022/01/07 09:58:18;;;;;;;12.23;7.25;;;5.20;99.90;;;;;;4992359;28;20026;-74
2022/01/07 10:00:45;;;;;;;11.13;7.35;;;5.20;99.90;;;;;;4991664;28;20030;-74
2022/01/07 10:03:17;;;;;;;14.45;7.32;;;5.30;99.90;;;;;;5009037;28;20018;-74
2022/01/07 10:05:45;;;;;;;11.80;8.18;;;5.30;99.90;;;;;;5010102;28;20036;-74
2022/01/07 10:08:29;;;;;;;9.82;6.80;;;5.30;99.90;;;;;;5009543;28;20222;-74
2022/01/07 10:11:16;;;;;;;14.90;7.47;;;5.30;99.90;;;;;;4990015;28;20554;-74
2022/01/07 10:13:51;;;;;;;7.05;5.53;;;5.30;99.90;;;;;;4971541;28;20084;-74
2022/01/07 10:16:22;;;;;;;8.25;5.70;;;5.30;99.90;;;;;;4986925;28;20468;-75
2022/01/07 10:18:49;;;;;;;9.63;5.50;;;5.40;99.90;;;;;;5009980;28;20030;-76
2022/01/07 10:21:17;;;;;;;11.75;6.60;;;5.40;99.90;;;;;;5010396;28;20103;-76
2022/01/07 10:23:44;;;;;;;12.82;7.07;;;5.40;99.90;;;;;;5010351;28;20025;-74
2022/01/07 10:26:18;;;;;;;10.93;6.32;;;5.40;99.90;;;;;;5006628;28;20214;-77
2022/01/07 10:28:47;;;;;;;10.45;6.70;;;5.40;99.90;;;;;;5010257;28;20018;-75
2022/01/07 10:31:21;;;;;;;8.82;6.57;;;5.40;99.90;;;;;;4992490;28;20116;-75
2022/01/07 10:33:49;;;;;;;12.48;7.22;;;5.40;99.90;;;;;;5009934;28;20029;-75
2022/01/07 10:36:20;;;;;;;12.57;7.50;;;5.40;99.90;;;;;;5009576;28;20026;-75
2022/01/07 10:38:53;;;;;;;10.20;7.60;;;5.50;99.90;;;;;;4991521;28;20026;-75
2022/01/07 10:41:20;;;;;;;9.57;6.60;;;5.50;99.90;;;;;;5014706;28;20033;-72
2022/01/07 10:43:47;;;;;;;14.80;7.45;;;5.50;99.90;;;;;;5004767;28;20018;-73
2022/01/07 10:46:27;;;;;;;13.48;7.90;;;5.60;99.90;;;;;;5002628;28;20080;-72
2022/01/07 10:49:01;;;;;;;10.75;6.85;;;5.60;99.90;;;;;;4987575;28;20117;-73
2022/01/07 10:51:30;;;;;;;12.68;7.10;;;5.70;99.90;;;;;;4985500;28;20026;-72
2022/01/07 10:53:58;;;;;;;12.43;7.13;;;5.70;99.90;;;;;;5004274;28;20030;-72
2022/01/07 10:56:36;;;;;;;12.45;6.68;;;5.70;99.90;;;;;;5006238;28;20054;-72
2022/01/07 10:59:12;;;;;;;10.40;6.47;;;5.70;99.90;;;;;;5003666;28;20470;-72
2022/01/07 11:01:48;;;;;;;8.65;6.00;;;5.80;99.90;;;;;;5002667;28;20022;-72
2022/01/07 11:04:21;;;;;;;12.52;7.57;;;5.80;99.90;;;;;;4997559;28;20027;-72
2022/01/07 11:06:48;;;;;;;12.77;7.10;;;5.90;99.90;;;;;;4975750;28;20376;-72
2022/01/07 11:09:16;;;;;;;10.60;7.82;;;5.90;99.90;;;;;;4993168;28;20049;-72
2022/01/07 11:11:48;;;;;;;12.60;6.72;;;5.90;99.90;;;;;;4992789;28;20118;-72
2022/01/07 11:14:18;;;;;;;16.50;7.53;;;5.90;99.90;;;;;;4992504;28;20384;-72
2022/01/07 11:16:43;;;;;;;11.98;7.10;;;6.00;99.90;;;;;;4975716;28;20391;-72
2022/01/07 11:19:10;;;;;;;11.57;7.13;;;5.90;99.90;;;;;;4992799;28;20030;-72
2022/01/07 11:21:37;;;;;;;15.35;7.30;;;5.90;99.90;;;;;;4994384;28;20030;-72
2022/01/07 11:24:42;;;;;;;14.57;7.10;;;6.00;99.90;;;;;;5012327;28;20026;-72
2022/01/07 11:27:10;;;;;;;15.30;7.07;;;6.00;99.90;;;;;;4994423;28;20041;-72
2022/01/07 11:29:38;;;;;;;9.48;6.65;;;6.00;99.90;;;;;;4994390;28;20029;-72
2022/01/07 11:32:27;;;;;;;13.57;6.95;;;6.00;99.90;;;;;;5013205;28;20100;-72
2022/01/07 11:35:17;;;;;;;12.00;6.82;;;6.10;99.90;;;;;;5012166;28;20037;-73
2022/01/07 11:37:44;;;;;;;14.43;7.95;;;6.00;99.90;;;;;;5013027;28;20044;-73
2022/01/07 11:40:09;;;;;;;13.50;7.68;;;6.10;99.90;;;;;;5011929;28;20598;-72
2022/01/07 11:42:45;;;;;;;14.77;7.00;;;6.10;99.90;;;;;;5013048;28;20105;-72
2022/01/07 11:45:30;;;;;;;12.40;6.72;;;6.20;99.90;;;;;;5015198;28;20471;-72
2022/01/07 11:47:57;;;;;;;9.60;5.95;;;6.20;99.90;;;;;;4997685;28;20025;-75
2022/01/07 11:50:24;;;;;;;11.85;5.97;;;6.20;99.90;;;;;;5015380;28;20026;-74
2022/01/07 11:53:04;;;;;;;13.63;8.38;;;6.20;99.90;;;;;;5015268;28;20551;-75
2022/01/07 11:55:36;;;;;;;13.55;8.27;;;6.20;99.90;;;;;;4997870;28;20364;-74
2022/01/07 11:58:05;;;;;;;11.85;7.22;;;6.20;99.90;;;;;;4997519;28;20068;-74
2022/01/07 12:00:59;;;;;;;12.20;7.13;;;6.20;99.90;;;;;;4996948;28;20030;-75
2022/01/07 12:03:53;;;;;;;12.82;7.82;;;6.30;99.90;;;;;;5014994;28;20466;-75
2022/01/07 12:06:25;;;;;;;14.23;7.75;;;6.30;99.90;;;;;;4996738;28;20022;-74
2022/01/07 12:09:09;;;;;;;11.13;6.93;;;6.30;99.90;;;;;;4997445;28;20080;-75
2022/01/07 12:11:41;;;;;;;13.65;6.95;;;6.30;99.90;;;;;;5014890;28;20392;-75
2022/01/07 12:14:10;;;;;;;20.77;7.20;;;6.40;99.90;;;;;;5014588;28;20121;-75
2022/01/07 12:16:38;;;;;;;9.73;6.85;;;6.40;99.90;;;;;;4997304;28;20037;-75
2022/01/07 12:19:23;;;;;;;9.90;6.63;;;6.40;99.90;;;;;;5014822;28;20041;-75
2022/01/07 12:21:50;;;;;;;13.55;5.63;;;6.50;99.90;;;;;;5014472;28;20026;-75
2022/01/07 12:24:20;;;;;;;7.47;5.80;;;6.50;99.90;;;;;;5014889;28;20030;-75
2022/01/07 12:26:46;;;;;;;9.60;5.63;;;6.50;99.90;;;;;;5014662;28;20072;-75
2022/01/07 12:29:17;;;;;;;9.40;5.60;;;6.50;99.90;;;;;;4996929;28;20484;-75
2022/01/07 12:31:53;;;;;;;6.88;5.28;;;6.50;99.90;;;;;;5014639;28;20395;-75
2022/01/07 12:34:29;;;;;;;9.15;6.03;;;6.60;99.90;;;;;;5014370;28;20079;-75
2022/01/07 12:36:57;;;;;;;8.68;5.55;;;6.60;99.90;;;;;;4996813;28;20499;-75
2022/01/07 12:39:28;;;;;;;5.72;5.07;;;6.70;99.90;;;;;;5014078;28;20041;-75
2022/01/07 12:41:55;;;;;;;10.77;5.15;;;6.70;99.90;;;;;;5014333;28;20034;-75
2022/01/07 12:44:22;;;;;;;7.22;4.80;;;6.80;99.90;;;;;;5014457;28;20567;-75
2022/01/07 12:46:56;;;;;;;11.02;5.45;;;6.80;99.90;;;;;;5013967;28;20037;-75
2022/01/07 12:49:45;;;;;;;5.97;4.53;;;6.80;99.90;;;;;;5014292;28;20026;-75
2022/01/07 12:52:21;;;;;;;8.50;4.13;;;6.80;99.90;;;;;;5013911;28;20053;-75
2022/01/07 12:55:14;;;;;;;5.18;4.20;;;6.80;99.90;;;;;;5013553;28;20022;-75
2022/01/07 12:57:42;;;;;;;4.80;3.10;;;6.80;99.90;;;;;;5003791;28;20400;-75
2022/01/07 13:00:21;;;;;;;4.88;3.60;;;6.80;99.90;;;;;;5011264;28;20109;-75
2022/01/07 13:02:54;;;;;;;4.93;3.92;;;6.80;99.90;;;;;;5011248;28;20030;-75
2022/01/07 13:05:24;;;;;;;4.57;3.10;;;6.80;99.90;;;;;;5011359;28;20017;-75
2022/01/07 13:08:01;;;;;;;2.72;2.38;;;6.80;99.90;;;;;;5011915;28;20449;-75
2022/01/07 13:10:29;;;;;;;2.83;2.60;;;6.80;99.90;;;;;;4992732;28;20022;-73